Time;durP1;ratioP1;P1;durP2;ratioP2;P2;SDS_P1;SDS_P2;PMS_P1;PMS_P2;Temp;Humidity;BMP_temperature;BMP_pressure;BME280_temperature;BME280_humidity;BME280_pressure;Samples;Min_cycle;Max_cycle;Signal;HPM_P1;HPM_P2
2022/09/22 00:01:26;;;;;;;;;;;;;;;;;;5089320;28;19924;-76
2022/09/22 00:03:54;;;;;;;;;;;;;;;;;;5093829;28;19924;-75
2022/09/22 00:06:22;;;;;;;;;;;;;;;;;;5094352;28;20385;-74
2022/09/22 00:08:50;;;;;;;;;;;;;;;;;;5075357;28;20375;-75
2022/09/22 00:11:17;;;;;;;;;;;;;;;;;;5074026;28;19924;-74
2022/09/22 00:13:45;;;;;;;;;;;;;;;;;;5091515;28;19928;-75
2022/09/22 00:16:13;;;;;;;;;;;;;;;;;;5094451;28;20306;-75
2022/09/22 00:18:39;;;;;;;;;;;;;;;;;;5093359;28;19928;-75
2022/09/22 00:21:08;;;;;;;;;;;;;;;;;;5083933;28;20011;-75
2022/09/22 00:23:37;;;;;;;;;;;;;;;;;;5073926;28;19967;-76
2022/09/22 00:26:04;;;;;;;;;;;;;;;;;;5074330;28;19924;-75
2022/09/22 00:28:31;;;;;;;;;;;;;;;;;;5079093;28;19977;-75
2022/09/22 00:30:58;;;;;;;;;;;;;;;;;;5086142;28;19924;-75
2022/09/22 00:33:24;;;;;;;;;;;;;;;;;;5074019;28;19932;-75
2022/09/22 00:35:57;;;;;;;;;;;;;;;;;;5074056;28;19924;-75
2022/09/22 00:38:24;;;;;;;;;;;;;;;;;;5073386;28;20345;-74
2022/09/22 00:40:52;;;;;;;;;;;;;;;;;;5078171;28;19930;-75
2022/09/22 00:43:19;;;;;;;;;;;;;;;;;;5094381;28;19947;-76
2022/09/22 00:45:47;;;;;;;;;;;;;;;;;;5090226;28;19930;-75
2022/09/22 00:48:14;;;;;;;;;;;;;;;;;;5073775;28;19928;-75
2022/09/22 00:50:40;;;;;;;;;;;;;;;;;;5075562;28;19925;-75
2022/09/22 00:53:09;;;;;;;;;;;;;;;;;;5086385;28;20459;-76
2022/09/22 00:55:37;;;;;;;;;;;;;;;;;;5075592;28;20335;-76
2022/09/22 00:58:08;;;;;;;;;;;;;;;;;;5093258;28;20012;-76
2022/09/22 01:00:34;;;;;;;;;;;;;;;;;;5093497;28;19924;-76
2022/09/22 01:03:02;;;;;;;;;;;;;;;;;;5068855;28;20287;-76
2022/09/22 01:05:32;;;;;;;;;;;;;;;;;;5073618;28;19939;-76
2022/09/22 01:07:59;;;;;;;;;;;;;;;;;;5085914;28;19931;-75
2022/09/22 01:10:26;;;;;;;;;;;;;;;;;;5093431;28;20373;-76
2022/09/22 01:12:58;;;;;;;;;;;;;;;;;;5093298;28;19924;-75
2022/09/22 01:15:28;;;;;;;;;;;;;;;;;;5081185;28;19924;-75
2022/09/22 01:18:02;;;;;;;;;;;;;;;;;;5073680;28;19925;-76
2022/09/22 01:20:43;;;;;;;;;;;;;;;;;;5084978;28;19935;-76
2022/09/22 01:23:24;;;;;;;;;;;;;;;;;;5093275;28;19990;-75
2022/09/22 01:26:02;;;;;;;;;;;;;;;;;;5034038;28;19925;-76
2022/09/22 01:28:56;;;;;;;;;;;;;;;;;;5073984;28;19928;-77
2022/09/22 01:31:27;;;;;;;;;;;;;;;;;;5090449;28;19928;-76
2022/09/22 01:33:58;;;;;;;;;;;;;;;;;;5093074;28;19930;-76
2022/09/22 01:38:59;;;;;;;;;;;;;;;;;;5109123;28;19923;-79
2022/09/22 01:41:41;;;;;;;;;;;;;;;;;;5114200;28;20022;-79
2022/09/22 01:44:09;;;;;;;;;;;;;;;;;;5115147;28;19927;-80
2022/09/22 01:46:38;;;;;;;;;;;;;;;;;;5115205;28;19972;-79
2022/09/22 01:49:06;;;;;;;;;;;;;;;;;;5114031;28;19924;-78
2022/09/22 01:51:37;;;;;;;;;;;;;;;;;;5114349;28;19998;-78
2022/09/22 01:54:06;;;;;;;;;;;;;;;;;;5114637;28;20010;-78
2022/09/22 01:56:34;;;;;;;;;;;;;;;;;;5115844;28;19924;-79
2022/09/22 01:59:03;;;;;;;;;;;;;;;;;;5115382;28;19987;-79
2022/09/22 02:01:32;;;;;;;;;;;;;;;;;;5117232;28;20116;-79
2022/09/22 02:04:02;;;;;;;;;;;;;;;;;;5119496;28;20362;-79
2022/09/22 02:06:30;;;;;;;;;;;;;;;;;;5120519;28;19924;-79
2022/09/22 02:09:00;;;;;;;;;;;;;;;;;;5119540;28;19924;-79
2022/09/22 02:11:26;;;;;;;;;;;;;;;;;;5125069;28;19931;-79
2022/09/22 02:13:53;;;;;;;;;;;;;;;;;;5120447;28;20019;-80
2022/09/22 02:16:21;;;;;;;;;;;;;;;;;;5115875;28;20309;-79
2022/09/22 02:18:49;;;;;;;;;;;;;;;;;;5115680;28;19969;-79
2022/09/22 02:21:18;;;;;;;;;;;;;;;;;;5114902;28;19931;-79
2022/09/22 02:23:45;;;;;;;;;;;;;;;;;;5114752;28;19928;-79
2022/09/22 02:26:12;;;;;;;;;;;;;;;;;;5114586;28;19924;-79
2022/09/22 02:28:40;;;;;;;;;;;;;;;;;;5114725;28;19985;-79
2022/09/22 02:31:08;;;;;;;;;;;;;;;;;;5114763;28;20313;-79
2022/09/22 02:33:37;;;;;;;;;;;;;;;;;;5114684;28;19930;-79
2022/09/22 02:36:07;;;;;;;;;;;;;;;;;;5118422;28;19930;-80
2022/09/22 02:38:39;;;;;;;;;;;;;;;;;;5137278;28;19979;-81
2022/09/22 02:41:09;;;;;;;;;;;;;;;;;;5137530;28;19967;-80
2022/09/22 02:43:39;;;;;;;;;;;;;;;;;;5137946;28;19911;-81
2022/09/22 02:46:09;;;;;;;;;;;;;;;;;;5125256;28;20328;-79
2022/09/22 02:48:38;;;;;;;;;;;;;;;;;;5116008;28;19971;-79
2022/09/22 02:51:05;;;;;;;;;;;;;;;;;;5116379;28;19930;-78
2022/09/22 02:53:33;;;;;;;;;;;;;;;;;;5116309;28;19985;-78
2022/09/22 02:56:01;;;;;;;;;;;;;;;;;;5115951;28;19924;-79
2022/09/22 02:58:28;;;;;;;;;;;;;;;;;;5115695;28;19931;-79
2022/09/22 03:00:54;;;;;;;;;;;;;;;;;;5114748;28;20008;-79
2022/09/22 03:03:21;;;;;;;;;;;;;;;;;;5115163;28;19928;-81
2022/09/22 03:05:47;;;;;;;;;;;;;;;;;;5115702;28;20024;-80
2022/09/22 03:08:13;;;;;;;;;;;;;;;;;;5115123;28;19938;-79
2022/09/22 03:10:40;;;;;;;;;;;;;;;;;;5115172;28;19924;-78
2022/09/22 03:13:08;;;;;;;;;;;;;;;;;;5115563;28;20389;-76
2022/09/22 03:15:34;;;;;;;;;;;;;;;;;;5116587;28;19928;-76
2022/09/22 03:18:00;;;;;;;;;;;;;;;;;;5115602;28;19927;-77
2022/09/22 03:20:27;;;;;;;;;;;;;;;;;;5118946;28;20369;-79
2022/09/22 03:22:54;;;;;;;;;;;;;;;;;;5121230;28;20417;-79
2022/09/22 03:25:20;;;;;;;;;;;;;;;;;;5120587;28;20018;-79
2022/09/22 03:27:47;;;;;;;;;;;;;;;;;;5120229;28;19963;-79
2022/09/22 03:30:15;;;;;;;;;;;;;;;;;;5120370;28;19958;-79
2022/09/22 03:32:41;;;;;;;;;;;;;;;;;;5120447;28;20015;-77
2022/09/22 03:35:08;;;;;;;;;;;;;;;;;;5119941;28;19923;-79
2022/09/22 03:37:35;;;;;;;;;;;;;;;;;;5120585;28;20374;-78
2022/09/22 03:40:02;;;;;;;;;;;;;;;;;;5119867;28;20018;-78
2022/09/22 03:42:28;;;;;;;;;;;;;;;;;;5120241;28;19956;-79
2022/09/22 03:44:54;;;;;;;;;;;;;;;;;;5119924;28;19924;-79
2022/09/22 03:47:22;;;;;;;;;;;;;;;;;;5119783;28;20441;-80
2022/09/22 03:49:48;;;;;;;;;;;;;;;;;;5119451;28;19924;-77
2022/09/22 03:52:15;;;;;;;;;;;;;;;;;;5119164;28;19978;-80
2022/09/22 03:54:41;;;;;;;;;;;;;;;;;;5119581;28;19931;-77
2022/09/22 03:57:08;;;;;;;;;;;;;;;;;;5119119;28;19924;-78
2022/09/22 03:59:34;;;;;;;;;;;;;;;;;;5117799;28;20014;-77
2022/09/22 04:02:01;;;;;;;;;;;;;;;;;;5115430;28;20358;-76
2022/09/22 04:04:29;;;;;;;;;;;;;;;;;;5114770;28;19943;-75
2022/09/22 04:06:55;;;;;;;;;;;;;;;;;;5115494;28;19927;-76
2022/09/22 04:09:22;;;;;;;;;;;;;;;;;;5115065;28;20449;-76
2022/09/22 04:11:48;;;;;;;;;;;;;;;;;;5115456;28;19930;-76
2022/09/22 04:14:14;;;;;;;;;;;;;;;;;;5114288;28;19946;-76
2022/09/22 04:16:41;;;;;;;;;;;;;;;;;;5115824;28;19927;-75
2022/09/22 04:19:07;;;;;;;;;;;;;;;;;;5115570;28;19971;-76
2022/09/22 04:21:35;;;;;;;;;;;;;;;;;;5115266;28;19959;-76
2022/09/22 04:24:02;;;;;;;;;;;;;;;;;;5115371;28;19923;-75
2022/09/22 04:26:28;;;;;;;;;;;;;;;;;;5118480;28;19971;-76
2022/09/22 04:28:55;;;;;;;;;;;;;;;;;;5120752;28;19936;-76
2022/09/22 04:31:21;;;;;;;;;;;;;;;;;;5119683;28;19981;-75
2022/09/22 04:33:48;;;;;;;;;;;;;;;;;;5115175;28;19924;-75
2022/09/22 04:36:14;;;;;;;;;;;;;;;;;;5115549;28;19930;-77
2022/09/22 04:38:42;;;;;;;;;;;;;;;;;;5115098;28;19927;-76
2022/09/22 04:41:09;;;;;;;;;;;;;;;;;;5115372;28;19931;-76
2022/09/22 04:43:35;;;;;;;;;;;;;;;;;;5115160;28;19931;-76
2022/09/22 04:46:01;;;;;;;;;;;;;;;;;;5115606;28;19930;-76
2022/09/22 04:48:28;;;;;;;;;;;;;;;;;;5115141;28;19971;-77
2022/09/22 04:50:54;;;;;;;;;;;;;;;;;;5115549;28;19989;-76
2022/09/22 04:53:21;;;;;;;;;;;;;;;;;;5115334;28;20340;-77
2022/09/22 04:55:50;;;;;;;;;;;;;;;;;;5116379;28;19930;-77
2022/09/22 04:58:16;;;;;;;;;;;;;;;;;;5115963;28;19930;-77
2022/09/22 05:00:43;;;;;;;;;;;;;;;;;;5116109;28;20348;-77
2022/09/22 05:03:09;;;;;;;;;;;;;;;;;;5115477;28;19930;-76
2022/09/22 05:05:37;;;;;;;;;;;;;;;;;;5115033;28;19931;-76
2022/09/22 05:08:04;;;;;;;;;;;;;;;;;;5115202;28;19930;-76
2022/09/22 05:10:33;;;;;;;;;;;;;;;;;;5114693;28;19947;-77
2022/09/22 05:13:01;;;;;;;;;;;;;;;;;;5114773;28;19930;-77
2022/09/22 05:15:27;;;;;;;;;;;;;;;;;;5094092;28;20395;-76
2022/09/22 05:17:54;;;;;;;;;;;;;;;;;;5106573;28;19928;-76
2022/09/22 05:20:21;;;;;;;;;;;;;;;;;;5114592;28;20321;-76
2022/09/22 05:22:47;;;;;;;;;;;;;;;;;;5114419;28;20409;-77
2022/09/22 05:25:16;;;;;;;;;;;;;;;;;;5097227;28;19930;-76
2022/09/22 05:27:43;;;;;;;;;;;;;;;;;;5094324;28;19979;-77
2022/09/22 05:30:11;;;;;;;;;;;;;;;;;;5094494;28;19935;-77
2022/09/22 05:32:38;;;;;;;;;;;;;;;;;;5094664;28;19928;-78
2022/09/22 05:35:05;;;;;;;;;;;;;;;;;;5105293;28;19924;-78
2022/09/22 05:37:31;;;;;;;;;;;;;;;;;;5114187;28;19935;-78
2022/09/22 05:39:57;;;;;;;;;;;;;;;;;;5113908;28;20019;-77
2022/09/22 05:42:24;;;;;;;;;;;;;;;;;;5113564;28;20341;-78
2022/09/22 05:44:50;;;;;;;;;;;;;;;;;;5113320;28;20019;-75
2022/09/22 05:47:18;;;;;;;;;;;;;;;;;;5114178;28;19930;-77
2022/09/22 05:49:44;;;;;;;;;;;;;;;;;;5114208;28;20297;-77
2022/09/22 05:52:11;;;;;;;;;;;;;;;;;;5114030;28;20014;-76
2022/09/22 05:54:37;;;;;;;;;;;;;;;;;;5113792;28;19946;-77
2022/09/22 05:57:04;;;;;;;;;;;;;;;;;;5113541;28;19923;-76
2022/09/22 05:59:30;;;;;;;;;;;;;;;;;;5113730;28;19923;-77
2022/09/22 06:01:56;;;;;;;;;;;;;;;;;;5114016;28;20546;-77
2022/09/22 06:04:24;;;;;;;;;;;;;;;;;;5113863;28;19924;-76
2022/09/22 06:06:50;;;;;;;;;;;;;;;;;;5113350;28;19953;-76
2022/09/22 06:09:17;;;;;;;;;;;;;;;;;;5117531;28;19924;-76
2022/09/22 06:11:43;;;;;;;;;;;;;;;;;;5118044;28;20347;-76
2022/09/22 06:14:10;;;;;;;;;;;;;;;;;;5118383;28;19924;-76
2022/09/22 06:16:36;;;;;;;;;;;;;;;;;;5117842;28;19946;-77
2022/09/22 06:19:03;;;;;;;;;;;;;;;;;;5114666;28;19934;-78
2022/09/22 06:21:30;;;;;;;;;;;;;;;;;;5114311;28;19957;-77
2022/09/22 06:23:57;;;;;;;;;;;;;;;;;;5132221;28;19987;-76
2022/09/22 06:26:23;;;;;;;;;;;;;;;;;;5137240;28;19987;-75
2022/09/22 06:28:50;;;;;;;;;;;;;;;;;;5137671;28;19943;-75
2022/09/22 06:31:16;;;;;;;;;;;;;;;;;;5129827;28;20483;-76
2022/09/22 06:33:47;;;;;;;;;;;;;;;;;;5116501;28;19928;-77
2022/09/22 06:36:22;;;;;;;;;;;;;;;;;;5114034;28;19959;-77
2022/09/22 06:38:51;;;;;;;;;;;;;;;;;;5116625;28;19931;-78
2022/09/22 06:41:18;;;;;;;;;;;;;;;;;;5115961;28;19928;-77
2022/09/22 06:43:46;;;;;;;;;;;;;;;;;;5115590;28;19996;-76
2022/09/22 06:46:17;;;;;;;;;;;;;;;;;;5114943;28;20381;-76
2022/09/22 06:48:44;;;;;;;;;;;;;;;;;;5115304;28;20417;-77
2022/09/22 06:51:10;;;;;;;;;;;;;;;;;;5115167;28;19932;-78
2022/09/22 06:53:37;;;;;;;;;;;;;;;;;;5116962;28;20267;-79
2022/09/22 06:56:05;;;;;;;;;;;;;;;;;;5116455;28;19924;-77
2022/09/22 06:58:32;;;;;;;;;;;;;;;;;;5120084;28;19924;-74
2022/09/22 07:01:02;;;;;;;;;;;;;;;;;;5119063;28;20295;-76
2022/09/22 07:03:28;;;;;;;;;;;;;;;;;;5116549;28;19930;-79
2022/09/22 07:05:56;;;;;;;;;;;;;;;;;;5126656;27;19924;-76
2022/09/22 07:08:24;;;;;;;;;;;;;;;;;;5138279;27;19927;-77
2022/09/22 07:10:52;;;;;;;;;;;;;;;;;;5127842;27;19969;-77
2022/09/22 07:13:20;;;;;;;;;;;;;;;;;;5117206;28;19984;-76
2022/09/22 07:15:46;;;;;;;;;;;;;;;;;;5112609;28;19924;-76
2022/09/22 07:18:13;;;;;;;;;;;;;;;;;;5131083;27;19938;-77
2022/09/22 07:20:39;;;;;;;;;;;;;;;;;;5136994;27;20010;-76
2022/09/22 07:23:15;;;;;;;;;;;;;;;;;;5137381;27;20429;-77
2022/09/22 07:25:41;;;;;;;;;;;;;;;;;;5117068;27;19930;-77
2022/09/22 07:28:12;;;;;;;;;;;;;;;;;;5126865;28;19934;-75
2022/09/22 07:30:40;;;;;;;;;;;;;;;;;;5126170;28;19912;-75
2022/09/22 07:33:07;;;;;;;;;;;;;;;;;;5140574;28;19930;-75
2022/09/22 07:35:36;;;;;;;;;;;;;;;;;;5138583;28;19991;-75
2022/09/22 07:38:03;;;;;;;;;;;;;;;;;;5117829;28;19934;-76
2022/09/22 07:40:29;;;;;;;;;;;;;;;;;;5115222;28;20007;-76
2022/09/22 07:42:56;;;;;;;;;;;;;;;;;;5114318;28;19930;-74
2022/09/22 07:45:22;;;;;;;;;;;;;;;;;;5113456;28;19934;-75
2022/09/22 07:50:34;;;;;;;;;;;;;;;;;;5117039;28;19969;-74
2022/09/22 07:53:02;;;;;;;;;;;;;;;;;;5115929;28;19923;-74
2022/09/22 07:55:29;;;;;;;;;;;;;;;;;;5115745;28;20018;-75
2022/09/22 07:57:56;;;;;;;;;;;;;;;;;;5113298;28;19989;-75
2022/09/22 08:00:23;;;;;;;;;;;;;;;;;;5113004;28;20605;-75
2022/09/22 08:02:55;;;;;;;;;;;;;;;;;;5113452;28;19924;-75
2022/09/22 08:05:22;;;;;;;;;;;;;;;;;;5124754;22;19975;-53
2022/09/22 08:07:49;;;;;;;;;;;;;;;;;;5091890;28;19924;-52
2022/09/22 08:10:16;;;;;;;;;;;;;;;;;;5093694;28;20381;-55
2022/09/22 08:12:43;;;;;;;;;;;;;;;;;;5092535;28;20312;-55
2022/09/22 08:15:10;;;;;;;;;;;;;;;;;;5090657;28;20220;-56
2022/09/22 08:17:38;;;;;;;;;;;;;;;;;;5092191;28;19966;-54
2022/09/22 08:20:08;;;;;;;;;;;;;;;;;;5074451;28;19932;-54
2022/09/22 08:22:35;;;;;;;;;;;;;;;;;;5072218;28;20452;-56
2022/09/22 08:25:02;;;;;;;;;;;;;;;;;;5090274;28;20412;-53
2022/09/22 08:27:29;;;;;;;;;;;;;;;;;;5091185;28;19924;-56
2022/09/22 08:29:56;;;;;;;;;;;;;;;;;;5089136;28;19924;-59
2022/09/22 08:32:25;;;;;;;;;;;;;;;;;;5091608;28;19936;-54
2022/09/22 08:34:56;;;;;;;;;;;;;;;;;;5091882;28;19936;-56
2022/09/22 08:37:26;;;;;;;;;;;;;;;;;;5092874;28;19924;-57
2022/09/22 08:39:53;;;;;;;;;;;;;;;;;;5092258;28;19982;-53
2022/09/22 08:42:22;;;;;;;;;;;;;;;;;;5092263;28;19928;-53
2022/09/22 08:44:53;;;;;;;;;;;;;;;;;;5092319;28;19951;-54
2022/09/22 08:51:50;;;;;;;;;;;;;;;;;;5092493;28;19924;-55
2022/09/22 08:53:05;;;;;;;;;;;;;;;;;;5092000;28;20411;-52
2022/09/22 08:55:32;;;;;;;;;;;;;;;;;;5091985;28;19924;-55
2022/09/22 08:58:03;;;;;;;;;;;;;;;;;;5091913;28;19989;-51
2022/09/22 09:00:32;;;;;;;;;;;;;;;;;;5091327;28;19958;-55
2022/09/22 09:03:04;;;;;;;;;;;;;;;;;;5076694;28;19979;-54
2022/09/22 09:05:46;;;;;;;;;;;;;;;;;;5071136;28;19944;-54
2022/09/22 09:08:20;;;;;;;;;;;;;;;;;;5071392;28;19925;-54
2022/09/22 09:10:52;;;;;;;;;;;;;;;;;;5071577;28;19928;-56
2022/09/22 09:13:26;;;;;;;;;;;;;;;;;;5071721;28;20447;-56
2022/09/22 09:15:58;;;;;;;;;;;;;;;;;;5071424;28;20293;-57
2022/09/22 09:18:28;;;;;;;;;;;;;;;;;;5070432;28;19932;-57
2022/09/22 09:20:56;;;;;;;;;;;;;;;;;;5071395;28;20340;-56
2022/09/22 09:23:30;;;;;;;;;;;;;;;;;;5070754;28;20309;-54
2022/09/22 09:25:57;;;;;;;;;;;;;;;;;;5071257;28;19968;-52
2022/09/22 09:28:30;;;;;;;;;;;;;;;;;;5071295;28;19932;-55
2022/09/22 09:31:03;;;;;;;;;;;;;;;;;;5071258;28;19925;-52
2022/09/22 09:33:34;;;;;;;;;;;;;;;;;;5071083;28;19932;-57
2022/09/22 09:36:01;;;;;;;;;;;;;;;;;;5070987;28;20301;-57
2022/09/22 09:38:30;;;;;;;;;;;;;;;;;;5070579;28;20266;-58
2022/09/22 09:40:59;;;;;;;;;;;;;;;;;;5070760;28;19932;-56
2022/09/22 09:43:28;;;;;;;;;;;;;;;;;;5070813;28;19958;-55
2022/09/22 09:46:00;;;;;;;;;;;;;;;;;;5070663;28;19924;-57
2022/09/22 09:48:29;;;;;;;;;;;;;;;;;;5070038;28;19970;-55
2022/09/22 09:51:01;;;;;;;;;;;;;;;;;;5070453;28;20015;-57
2022/09/22 09:53:32;;;;;;;;;;;;;;;;;;5070510;28;20304;-59
2022/09/22 09:55:59;;;;;;;;;;;;;;;;;;5070656;28;20369;-56
2022/09/22 10:01:12;;;;;;;;;;;;;;;;;;5070300;28;20070;-55
2022/09/22 10:03:42;;;;;;;;;;;;;;;;;;5069958;28;20016;-56
2022/09/22 10:06:11;;;;;;;;;;;;;;;;;;5070115;28;19978;-57
2022/09/22 10:08:44;;;;;;;;;;;;;;;;;;5070221;28;19935;-58
2022/09/22 10:11:11;;;;;;;;;;;;;;;;;;5070494;28;19924;-56
2022/09/22 10:13:39;;;;;;;;;;;;;;;;;;5069971;28;19928;-58
2022/09/22 10:16:07;;;;;;;;;;;;;;;;;;5070342;28;19998;-55
2022/09/22 10:18:35;;;;;;;;;;;;;;;;;;5069980;28;20405;-55
2022/09/22 10:21:02;;;;;;;;;;;;;;;;;;5070145;28;19985;-53
2022/09/22 10:23:31;;;;;;;;;;;;;;;;;;5070382;28;19928;-55
2022/09/22 10:26:12;;;;;;;;;;;;;;;;;;5070131;28;19951;-53
2022/09/22 10:28:39;;;;;;;;;;;;;;;;;;5069879;28;19947;-54
2022/09/22 10:31:06;;;;;;;;;;;;;;;;;;5070369;28;19925;-56
2022/09/22 10:33:32;;;;;;;;;;;;;;;;;;5069998;28;19924;-53
2022/09/22 10:36:04;;;;;;;;;;;;;;;;;;5070159;28;19929;-53
2022/09/22 10:38:33;;;;;;;;;;;;;;;;;;5070024;28;19925;-56
2022/09/22 10:41:03;;;;;;;;;;;;;;;;;;5069934;28;19936;-53
2022/09/22 10:43:44;;;;;;;;;;;;;;;;;;5070341;28;19930;-52
2022/09/22 10:46:22;;;;;;;;;;;;;;;;;;5070188;28;19928;-57
2022/09/22 10:48:53;;;;;;;;;;;;;;;;;;5069802;28;19932;-57
2022/09/22 10:51:24;;;;;;;;;;;;;;;;;;5072922;28;19977;-58
2022/09/22 10:54:05;;;;;;;;;;;;;;;;;;5076076;28;20435;-62
2022/09/22 10:56:35;;;;;;;;;;;;;;;;;;5077259;28;19928;-52
2022/09/22 10:59:17;;;;;;;;;;;;;;;;;;5080289;28;19985;-68
2022/09/22 11:01:48;;;;;;;;;;;;;;;;;;5080264;28;20414;-55
2022/09/22 11:04:41;;;;;;;;;;;;;;;;;;5071331;28;20305;-56
2022/09/22 11:13:08;;;;;;;;;;;;;;;;;;5027191;28;19932;-62
2022/09/22 11:15:44;;;;;;;;;;;;;;;;;;5059246;28;19936;-59
2022/09/22 11:18:21;;;;;;;;;;;;;;;;;;5071215;28;20376;-59
2022/09/22 11:20:51;;;;;;;;;;;;;;;;;;5070760;28;19932;-59
2022/09/22 11:23:35;;;;;;;;;;;;;;;;;;5069759;28;19947;-59
2022/09/22 11:26:14;;;;;;;;;;;;;;;;;;5069883;28;19932;-59
2022/09/22 11:28:49;;;;;;;;;;;;;;;;;;5070135;28;20019;-60
2022/09/22 11:31:21;;;;;;;;;;;;;;;;;;5069993;28;19931;-58
2022/09/22 11:34:23;;;;;;;;;;;;;;;;;;5070119;28;19931;-60
2022/09/22 11:36:54;;;;;;;;;;;;;;;;;;5070229;28;19982;-57
2022/09/22 11:39:26;;;;;;;;;;;;;;;;;;5069794;28;19979;-57
2022/09/22 11:41:58;;;;;;;;;;;;;;;;;;5071797;28;20437;-60
2022/09/22 11:44:34;;;;;;;;;;;;;;;;;;5080862;28;19935;-58
2022/09/22 11:47:16;;;;;;;;;;;;;;;;;;5093839;28;20027;-59
2022/09/22 11:49:49;;;;;;;;;;;;;;;;;;5093495;28;19946;-60
2022/09/22 11:52:21;;;;;;;;;;;;;;;;;;5093776;28;19925;-60
2022/09/22 11:54:56;;;;;;;;;;;;;;;;;;5093628;28;20400;-55
2022/09/22 11:57:24;;;;;;;;;;;;;;;;;;5093281;28;19925;-59
2022/09/22 11:59:52;;;;;;;;;;;;;;;;;;5092840;28;20399;-59
2022/09/22 12:02:25;;;;;;;;;;;;;;;;;;5093892;28;20319;-59
2022/09/22 12:04:55;;;;;;;;;;;;;;;;;;5093278;28;19931;-59
2022/09/22 12:07:27;;;;;;;;;;;;;;;;;;5092975;28;19953;-59
2022/09/22 12:09:55;;;;;;;;;;;;;;;;;;5093256;28;19927;-59
2022/09/22 12:12:22;;;;;;;;;;;;;;;;;;5092929;28;19931;-60
2022/09/22 12:14:54;;;;;;;;;;;;;;;;;;5093218;28;19946;-60
2022/09/22 12:17:23;;;;;;;;;;;;;;;;;;5093503;28;19928;-60
2022/09/22 12:19:55;;;;;;;;;;;;;;;;;;5092688;28;19928;-59
2022/09/22 12:22:24;;;;;;;;;;;;;;;;;;5092886;28;19932;-58
2022/09/22 12:24:51;;;;;;;;;;;;;;;;;;5093011;28;19935;-56
2022/09/22 12:27:21;;;;;;;;;;;;;;;;;;5092925;28;19928;-59
2022/09/22 12:29:55;;;;;;;;;;;;;;;;;;5091953;28;20014;-56
2022/09/22 12:32:24;;;;;;;;;;;;;;;;;;5092521;28;19974;-55
2022/09/22 12:34:51;;;;;;;;;;;;;;;;;;5092664;28;20354;-58
2022/09/22 12:37:22;;;;;;;;;;;;;;;;;;5092153;28;20331;-59
2022/09/22 12:39:49;;;;;;;;;;;;;;;;;;5092944;28;20278;-59
2022/09/22 12:42:20;;;;;;;;;;;;;;;;;;5092797;28;19924;-58
2022/09/22 12:44:50;;;;;;;;;;;;;;;;;;5092704;28;20441;-59
2022/09/22 12:47:19;;;;;;;;;;;;;;;;;;5092224;28;19978;-58
2022/09/22 12:49:51;;;;;;;;;;;;;;;;;;5092314;28;19979;-60
2022/09/22 12:52:36;;;;;;;;;;;;;;;;;;5092510;28;19924;-57
2022/09/22 12:55:13;;;;;;;;;;;;;;;;;;5092535;28;20291;-58
2022/09/22 12:57:46;;;;;;;;;;;;;;;;;;5092340;28;20003;-57
2022/09/22 13:00:19;;;;;;;;;;;;;;;;;;5092161;28;19931;-58
2022/09/22 13:02:48;;;;;;;;;;;;;;;;;;5091964;28;19928;-58
2022/09/22 13:05:36;;;;;;;;;;;;;;;;;;5091740;28;20280;-60
2022/09/22 13:08:03;;;;;;;;;;;;;;;;;;5091796;28;19927;-58
2022/09/22 13:10:42;;;;;;;;;;;;;;;;;;5091863;28;19973;-57
2022/09/22 13:13:10;;;;;;;;;;;;;;;;;;5091965;28;19938;-58
2022/09/22 13:15:51;;;;;;;;;;;;;;;;;;5091601;28;19928;-57
2022/09/22 13:18:27;;;;;;;;;;;;;;;;;;5091759;28;19924;-55
2022/09/22 13:20:55;;;;;;;;;;;;;;;;;;5092237;28;20180;-56
2022/09/22 13:23:22;;;;;;;;;;;;;;;;;;5091319;28;19932;-58
2022/09/22 13:25:50;;;;;;;;;;;;;;;;;;5091285;28;19961;-58
2022/09/22 13:28:18;;;;;;;;;;;;;;;;;;5091386;28;20014;-59
2022/09/22 13:30:46;;;;;;;;;;;;;;;;;;5091520;28;19990;-59
2022/09/22 13:33:17;;;;;;;;;;;;;;;;;;5091737;28;19993;-57
2022/09/22 13:35:44;;;;;;;;;;;;;;;;;;5091103;28;19947;-59
2022/09/22 13:38:13;;;;;;;;;;;;;;;;;;5091291;28;19931;-58
2022/09/22 13:40:44;;;;;;;;;;;;;;;;;;5091214;28;20338;-59
2022/09/22 13:43:12;;;;;;;;;;;;;;;;;;5091495;28;19924;-59
2022/09/22 13:45:39;;;;;;;;;;;;;;;;;;5091140;28;19924;-59
2022/09/22 13:48:07;;;;;;;;;;;;;;;;;;5091120;28;19924;-54
2022/09/22 13:50:39;;;;;;;;;;;;;;;;;;5091399;28;19924;-59
2022/09/22 13:53:07;;;;;;;;;;;;;;;;;;5089537;28;21940;-59
2022/09/22 13:55:37;;;;;;;;;;;;;;;;;;5090885;28;19928;-59
2022/09/22 13:58:05;;;;;;;;;;;;;;;;;;5085169;28;19931;-53
2022/09/22 14:00:32;;;;;;;;;;;;;;;;;;5077246;28;20051;-56
2022/09/22 14:03:01;;;;;;;;;;;;;;;;;;5070543;28;19982;-58
2022/09/22 14:05:30;;;;;;;;;;;;;;;;;;5080300;28;19924;-59
2022/09/22 14:07:57;;;;;;;;;;;;;;;;;;5090968;28;19924;-56
2022/09/22 14:10:26;;;;;;;;;;;;;;;;;;5074801;28;19951;-60
2022/09/22 14:12:54;;;;;;;;;;;;;;;;;;5071024;28;20677;-60
2022/09/22 14:15:38;;;;;;;;;;;;;;;;;;5070566;28;19924;-58
2022/09/22 14:18:08;;;;;;;;;;;;;;;;;;5071198;28;20139;-51
2022/09/22 14:20:38;;;;;;;;;;;;;;;;;;5080212;28;19928;-51
2022/09/22 14:23:11;;;;;;;;;;;;;;;;;;5081276;28;20011;-50
2022/09/22 14:25:38;;;;;;;;;;;;;;;;;;5080179;28;19928;-54
2022/09/22 14:28:14;;;;;;;;;;;;;;;;;;5089340;28;20325;-51
2022/09/22 14:30:41;;;;;;;;;;;;;;;;;;5077294;28;20631;-50
2022/09/22 14:33:14;;;;;;;;;;;;;;;;;;5078501;28;19947;-54
2022/09/22 14:35:41;;;;;;;;;;;;;;;;;;5080357;28;19932;-53
2022/09/22 14:38:08;;;;;;;;;;;;;;;;;;5093655;22;19912;-57
2022/09/22 14:40:37;;;;;;;;;;;;;;;;;;5118718;27;19924;-57
2022/09/22 14:43:07;;;;;;;;;;;;;;;;;;5127854;27;20340;-60
2022/09/22 14:45:36;;;;;;;;;;;;;;;;;;5104325;28;19970;-56
2022/09/22 14:48:09;;;;;;;;;;;;;;;;;;5097173;28;19943;-58
2022/09/22 14:50:38;;;;;;;;;;;;;;;;;;5103796;28;19934;-57
2022/09/22 14:53:07;;;;;;;;;;;;;;;;;;5096748;28;19930;-59
2022/09/22 14:55:35;;;;;;;;;;;;;;;;;;5099725;28;19935;-57
2022/09/22 14:58:05;;;;;;;;;;;;;;;;;;5093168;28;19931;-58
2022/09/22 15:03:19;;;;;;;;;;;;;;;;;;5100299;28;20012;-57
2022/09/22 15:05:46;;;;;;;;;;;;;;;;;;5099709;28;19928;-59
2022/09/22 15:08:15;;;;;;;;;;;;;;;;;;5099689;28;19932;-57
2022/09/22 15:10:50;;;;;;;;;;;;;;;;;;5094090;28;19924;-58
2022/09/22 15:13:18;;;;;;;;;;;;;;;;;;5104006;28;19977;-58
2022/09/22 15:15:46;;;;;;;;;;;;;;;;;;5090222;28;19988;-58
2022/09/22 15:18:14;;;;;;;;;;;;;;;;;;5093626;28;19927;-59
2022/09/22 15:20:43;;;;;;;;;;;;;;;;;;5094597;28;19928;-58
2022/09/22 15:23:13;;;;;;;;;;;;;;;;;;5097770;28;20003;-60
2022/09/22 15:25:39;;;;;;;;;;;;;;;;;;5094372;28;20377;-57
2022/09/22 15:28:10;;;;;;;;;;;;;;;;;;5098508;28;19927;-53
2022/09/22 15:30:36;;;;;;;;;;;;;;;;;;5099065;28;20015;-58
2022/09/22 15:33:03;;;;;;;;;;;;;;;;;;5112451;28;19928;-56
2022/09/22 15:35:36;;;;;;;;;;;;;;;;;;5103069;28;19924;-58
2022/09/22 15:38:05;;;;;;;;;;;;;;;;;;5096205;28;19924;-58
2022/09/22 15:40:32;;;;;;;;;;;;;;;;;;5104739;28;19924;-57
2022/09/22 15:43:03;;;;;;;;;;;;;;;;;;5103821;28;20392;-57
2022/09/22 15:45:30;;;;;;;;;;;;;;;;;;5110556;28;19924;-58
2022/09/22 15:47:57;;;;;;;;;;;;;;;;;;5102759;28;19985;-58
2022/09/22 15:50:24;;;;;;;;;;;;;;;;;;5095458;28;20342;-58
2022/09/22 15:52:51;;;;;;;;;;;;;;;;;;5093557;28;19964;-58
2022/09/22 15:55:20;;;;;;;;;;;;;;;;;;5102079;28;19924;-54
2022/09/22 15:57:48;;;;;;;;;;;;;;;;;;5093068;28;19924;-56
2022/09/22 16:00:15;;;;;;;;;;;;;;;;;;5097316;28;19928;-58
2022/09/22 16:02:42;;;;;;;;;;;;;;;;;;5095331;28;19978;-58
2022/09/22 16:05:10;;;;;;;;;;;;;;;;;;5107234;28;20019;-58
2022/09/22 16:07:37;;;;;;;;;;;;;;;;;;5096343;28;20283;-57
2022/09/22 16:10:04;;;;;;;;;;;;;;;;;;5094854;28;20026;-58
2022/09/22 16:12:32;;;;;;;;;;;;;;;;;;5101195;28;19977;-59
2022/09/22 16:15:01;;;;;;;;;;;;;;;;;;5112947;28;20396;-58
2022/09/22 16:17:28;;;;;;;;;;;;;;;;;;5108186;28;19930;-59
2022/09/22 16:19:55;;;;;;;;;;;;;;;;;;5105123;28;20659;-58
2022/09/22 16:22:21;;;;;;;;;;;;;;;;;;5105060;28;19967;-59
2022/09/22 16:24:48;;;;;;;;;;;;;;;;;;5102809;28;19969;-58
2022/09/22 16:27:15;;;;;;;;;;;;;;;;;;5098609;28;20004;-52
2022/09/22 16:29:43;;;;;;;;;;;;;;;;;;5094448;28;20286;-68
2022/09/22 16:32:10;;;;;;;;;;;;;;;;;;5104974;28;19958;-71
2022/09/22 16:34:36;;;;;;;;;;;;;;;;;;5091613;28;19924;-57
2022/09/22 16:37:03;;;;;;;;;;;;;;;;;;5108507;28;19928;-59
2022/09/22 16:39:29;;;;;;;;;;;;;;;;;;5101448;28;19931;-57
2022/09/22 16:41:56;;;;;;;;;;;;;;;;;;5108411;28;19928;-58
2022/09/22 16:44:23;;;;;;;;;;;;;;;;;;5112586;28;19946;-59
2022/09/22 16:46:50;;;;;;;;;;;;;;;;;;5106097;28;19954;-56
2022/09/22 16:49:19;;;;;;;;;;;;;;;;;;5094322;28;19927;-58
2022/09/22 16:51:48;;;;;;;;;;;;;;;;;;5096790;28;19951;-56
2022/09/22 16:54:15;;;;;;;;;;;;;;;;;;5103247;28;20429;-55
2022/09/22 16:56:43;;;;;;;;;;;;;;;;;;5093391;28;19988;-55
2022/09/22 16:59:10;;;;;;;;;;;;;;;;;;5104662;28;19932;-58
2022/09/22 17:01:37;;;;;;;;;;;;;;;;;;5107071;28;19924;-68
2022/09/22 17:04:06;;;;;;;;;;;;;;;;;;5092517;28;19931;-56
2022/09/22 17:06:34;;;;;;;;;;;;;;;;;;5093572;28;20434;-56
2022/09/22 17:09:01;;;;;;;;;;;;;;;;;;5107577;28;19924;-56
2022/09/22 17:11:29;;;;;;;;;;;;;;;;;;5112515;28;19924;-57
2022/09/22 17:13:58;;;;;;;;;;;;;;;;;;5093507;28;19924;-57
2022/09/22 17:16:27;;;;;;;;;;;;;;;;;;5093096;28;20280;-57
2022/09/22 17:18:55;;;;;;;;;;;;;;;;;;5106959;28;20271;-53